Portada
METAR-TAF:

METAR-TAF

Aeropuertos :

Formosa, Argentina

Aeropuerto Internacional de Formosa

latitud: 26-12S, longitud: 058-14W, altitud: 59 m

Observación

El informe se hizo hace 45 minutos, a las 09:00 UTC
Viento 7 kt del noreste
Temperatura 23°C
Humedad 83%
Presión 1015 hPa
Visibilidad 10 km o más
sin nubes por debajo de 1500 m y sin presencia de cumulonimbus.

METAR: SARF 190900Z 05007KT CAVOK 23/20 Q1015

Hora: 06:45 (09:45 UTC)

Pronóstico

El informe se hizo hace 4 horas y 45 minutos, a las 05:00 UTC
Pronóstico válido del 19 a las 06 UTC al 20 a las 06 UTC
Viento 5 kt del este
Visibilidad 10 km o más
sin nubes por debajo de 1500 m y sin presencia de cumulonimbus.
Probabilidad 30%
del 19 a las 15 UTC al 19 a las 21 UTC
Visibilidad: 8000 m
Nubes dispersas a una altura de 4000 ft

TAF: SARF 190500Z 1906/2006 09005KT CAVOK TX33/1918Z TN22/1909Z PROB30 1915/1921 8000 SCT040

Observaciones y pronósticos meteorológicos de más de 4000 aeropuertos (mensajes METAR y TAF).

Los puntos amarillos y rojos representan las estaciones disponibles.

Ponga el ratón en el punto deseado para ver el nombre de la estación.

Haga clic para ver las observaciones y los pronósticos meteorológicos.

Para cambiar el mapa : haga clic en los botones verdes con una cruz de color negro para hacer un zoom, en el botón verde con un guión para alejar o en las flechas verdes para mapas adyacentes.


METAR-TAF: